Time;durP1;ratioP1;P1;durP2;ratioP2;P2;SDS_P1;SDS_P2;PMS_P1;PMS_P2;Temp;Humidity;BMP_temperature;BMP_pressure;BME280_temperature;BME280_humidity;BME280_pressure;Samples;Min_cycle;Max_cycle;Signal;HPM_P1;HPM_P2
2021/07/09 00:01:57;;;;;;;15.90;11.23;;;;;;;;;;5044016;28;20052;-74
2021/07/09 00:04:24;;;;;;;20.65;13.02;;;;;;;;;;5035472;28;20048;-74
2021/07/09 00:06:51;;;;;;;21.45;15.15;;;;;;;;;;5052992;28;20087;-74
2021/07/09 00:09:18;;;;;;;29.30;19.13;;;;;;;;;;5053036;28;20484;-74
2021/07/09 00:11:47;;;;;;;26.30;20.58;;;;;;;;;;5036157;28;20492;-74
2021/07/09 00:14:14;;;;;;;23.70;17.27;;;;;;;;;;5047720;28;20048;-74
2021/07/09 00:16:42;;;;;;;22.58;17.10;;;;;;;;;;5045196;28;20107;-74
2021/07/09 00:19:08;;;;;;;21.15;15.30;;;;;;;;;;5021515;28;20120;-74
2021/07/09 00:21:35;;;;;;;25.38;19.23;;;;;;;;;;5049549;28;20052;-74
2021/07/09 00:24:02;;;;;;;25.42;16.27;;;;;;;;;;5052146;28;20052;-74
2021/07/09 00:26:29;;;;;;;31.80;20.00;;;;;;;;;;5052465;28;20055;-74
2021/07/09 00:28:57;;;;;;;23.35;16.85;;;;;;;;;;5032345;28;20040;-74
2021/07/09 00:31:24;;;;;;;23.27;16.63;;;;;;;;;;5024397;28;20150;-74
2021/07/09 00:33:52;;;;;;;24.05;16.33;;;;;;;;;;5048044;28;20059;-74
2021/07/09 00:36:18;;;;;;;21.88;15.75;;;;;;;;;;5045834;28;20048;-74
2021/07/09 00:38:45;;;;;;;21.60;15.15;;;;;;;;;;5025962;28;20184;-74
2021/07/09 00:41:11;;;;;;;17.08;13.75;;;;;;;;;;5045720;28;20452;-74
2021/07/09 00:43:40;;;;;;;20.02;14.68;;;;;;;;;;5056415;28;20033;-74
2021/07/09 00:46:07;;;;;;;22.05;14.35;;;;;;;;;;5056680;28;20178;-74
2021/07/09 00:48:34;;;;;;;18.67;13.00;;;;;;;;;;5033621;28;20050;-74
2021/07/09 00:51:00;;;;;;;20.63;14.73;;;;;;;;;;5053038;28;20135;-74
2021/07/09 00:53:27;;;;;;;20.20;14.98;;;;;;;;;;5028892;28;20033;-74
2021/07/09 00:55:54;;;;;;;18.38;14.10;;;;;;;;;;5049881;28;20077;-74
2021/07/09 00:58:21;;;;;;;19.88;12.85;;;;;;;;;;5044595;28;20077;-74
2021/07/09 01:00:48;;;;;;;18.42;13.77;;;;;;;;;;5036317;28;20373;-74
2021/07/09 01:03:14;;;;;;;15.00;10.77;;;;;;;;;;5044625;28;20103;-74
2021/07/09 01:05:41;;;;;;;14.82;11.13;;;;;;;;;;5049281;28;20068;-74
2021/07/09 01:08:07;;;;;;;13.45;9.98;;;;;;;;;;5032971;28;20102;-74
2021/07/09 01:10:33;;;;;;;17.73;12.73;;;;;;;;;;5045265;28;20507;-74
2021/07/09 01:13:00;;;;;;;18.98;14.02;;;;;;;;;;5046413;28;20064;-74
2021/07/09 01:15:26;;;;;;;19.30;14.07;;;;;;;;;;5051080;28;20044;-74
2021/07/09 01:17:53;;;;;;;17.88;12.52;;;;;;;;;;5051280;28;20044;-74
2021/07/09 01:20:20;;;;;;;16.13;12.15;;;;;;;;;;5045965;28;20487;-74
2021/07/09 01:22:48;;;;;;;17.67;12.40;;;;;;;;;;5049948;28;20037;-74
2021/07/09 01:25:16;;;;;;;17.98;13.00;;;;;;;;;;5049418;28;20499;-74
2021/07/09 01:27:43;;;;;;;15.95;11.57;;;;;;;;;;5047929;28;20112;-74
2021/07/09 01:30:11;;;;;;;19.58;13.93;;;;;;;;;;5050513;28;20055;-74
2021/07/09 01:32:37;;;;;;;16.25;12.40;;;;;;;;;;5049735;28;20091;-74
2021/07/09 01:35:04;;;;;;;20.80;13.20;;;;;;;;;;5048945;28;20500;-74
2021/07/09 01:37:31;;;;;;;20.65;14.35;;;;;;;;;;5053565;28;20060;-74
2021/07/09 01:39:57;;;;;;;25.58;14.77;;;;;;;;;;5029643;28;20044;-74
2021/07/09 01:42:23;;;;;;;22.73;14.88;;;;;;;;;;5047247;28;20033;-74
2021/07/09 01:44:50;;;;;;;21.33;13.13;;;;;;;;;;5048765;28;20083;-74
2021/07/09 01:47:16;;;;;;;17.30;11.77;;;;;;;;;;5048959;28;20111;-74
2021/07/09 01:49:49;;;;;;;17.75;11.38;;;;;;;;;;5051334;28;20041;-74
2021/07/09 01:52:16;;;;;;;19.80;11.40;;;;;;;;;;5051023;28;20236;-74
2021/07/09 01:54:42;;;;;;;16.20;10.50;;;;;;;;;;5050046;28;20041;-74
2021/07/09 01:57:08;;;;;;;14.85;11.18;;;;;;;;;;5046759;28;20037;-74
2021/07/09 01:59:35;;;;;;;22.20;15.07;;;;;;;;;;5046131;28;20225;-74
2021/07/09 02:02:01;;;;;;;18.70;10.77;;;;;;;;;;5064104;28;20480;-74
2021/07/09 02:04:28;;;;;;;18.13;11.68;;;;;;;;;;5063614;28;20094;-74
2021/07/09 02:06:54;;;;;;;20.35;11.77;;;;;;;;;;5062961;28;20132;-74
2021/07/09 02:09:20;;;;;;;21.40;12.70;;;;;;;;;;5063370;28;21523;-74
2021/07/09 02:11:46;;;;;;;22.98;15.88;;;;;;;;;;5063554;28;20032;-74
2021/07/09 02:14:13;;;;;;;21.65;14.75;;;;;;;;;;5063241;28;20117;-74
2021/07/09 02:16:40;;;;;;;27.75;14.88;;;;;;;;;;5061351;28;20152;-74
2021/07/09 02:19:07;;;;;;;25.15;15.32;;;;;;;;;;5061651;28;20086;-74
2021/07/09 02:21:33;;;;;;;25.08;15.20;;;;;;;;;;5060458;28;20049;-74
2021/07/09 02:24:00;;;;;;;26.30;18.17;;;;;;;;;;5060538;28;20124;-74
2021/07/09 02:26:26;;;;;;;28.77;19.27;;;;;;;;;;5061814;28;20443;-74
2021/07/09 02:28:52;;;;;;;25.65;17.63;;;;;;;;;;5057181;28;20056;-74
2021/07/09 02:31:19;;;;;;;30.08;18.50;;;;;;;;;;5059751;28;20459;-74
2021/07/09 02:33:45;;;;;;;29.15;17.95;;;;;;;;;;5062852;28;20159;-74
2021/07/09 02:36:11;;;;;;;28.90;18.25;;;;;;;;;;5058555;28;20040;-74
2021/07/09 02:38:37;;;;;;;29.50;19.27;;;;;;;;;;5062459;28;21497;-74
2021/07/09 02:41:04;;;;;;;26.52;17.95;;;;;;;;;;5045349;28;20178;-74
2021/07/09 02:43:30;;;;;;;25.67;18.50;;;;;;;;;;5059322;28;20072;-74
2021/07/09 02:45:56;;;;;;;24.08;15.70;;;;;;;;;;5045978;28;20041;-74
2021/07/09 02:48:23;;;;;;;20.80;14.63;;;;;;;;;;5065814;28;20048;-74
2021/07/09 02:50:50;;;;;;;28.25;17.55;;;;;;;;;;5066157;28;20043;-74
2021/07/09 02:53:16;;;;;;;26.80;16.55;;;;;;;;;;5064182;28;20059;-74
2021/07/09 02:55:42;;;;;;;22.90;15.45;;;;;;;;;;5062756;28;20047;-74
2021/07/09 02:58:09;;;;;;;30.00;17.83;;;;;;;;;;5060026;28;20123;-74
2021/07/09 03:00:35;;;;;;;26.48;16.77;;;;;;;;;;5064855;28;20048;-74
2021/07/09 03:03:02;;;;;;;25.13;17.25;;;;;;;;;;5064123;28;20040;-74
2021/07/09 03:05:28;;;;;;;23.42;16.58;;;;;;;;;;5066260;28;20041;-74
2021/07/09 03:07:54;;;;;;;22.38;15.60;;;;;;;;;;5066429;28;20060;-73
2021/07/09 03:10:21;;;;;;;21.45;16.02;;;;;;;;;;5064926;28;20071;-74
2021/07/09 03:12:47;;;;;;;24.02;16.73;;;;;;;;;;5041920;28;20076;-74
2021/07/09 03:15:14;;;;;;;30.48;19.08;;;;;;;;;;5062952;28;20107;-74
2021/07/09 03:17:41;;;;;;;29.42;21.27;;;;;;;;;;5063141;28;20052;-74
2021/07/09 03:20:08;;;;;;;30.70;19.70;;;;;;;;;;5065686;28;20076;-74
2021/07/09 03:22:35;;;;;;;26.27;19.60;;;;;;;;;;5064000;28;20079;-74
2021/07/09 03:25:01;;;;;;;28.98;19.95;;;;;;;;;;5044964;28;20033;-74
2021/07/09 03:27:27;;;;;;;26.63;18.77;;;;;;;;;;5063620;28;20045;-74
2021/07/09 03:29:53;;;;;;;37.80;19.83;;;;;;;;;;5062475;28;20040;-74
2021/07/09 03:32:20;;;;;;;24.38;16.67;;;;;;;;;;5064115;28;20187;-74
2021/07/09 03:34:46;;;;;;;18.98;11.98;;;;;;;;;;5065558;28;20559;-74
2021/07/09 03:37:12;;;;;;;13.90;9.43;;;;;;;;;;5064006;28;20158;-74
2021/07/09 03:39:39;;;;;;;15.88;10.77;;;;;;;;;;5065186;28;20120;-74
2021/07/09 03:42:05;;;;;;;14.02;8.90;;;;;;;;;;5064337;28;20520;-74
2021/07/09 03:44:31;;;;;;;11.70;7.78;;;;;;;;;;5063354;28;20049;-74
2021/07/09 03:46:57;;;;;;;10.48;7.38;;;;;;;;;;5061612;28;20490;-74
2021/07/09 03:49:24;;;;;;;6.88;4.85;;;;;;;;;;5064394;28;20044;-74
2021/07/09 03:51:50;;;;;;;6.43;3.97;;;;;;;;;;5061568;28;20033;-74
2021/07/09 03:54:16;;;;;;;7.97;5.25;;;;;;;;;;5067064;28;20037;-74
2021/07/09 03:56:42;;;;;;;7.18;4.75;;;;;;;;;;5064075;28;20032;-74
2021/07/09 03:59:10;;;;;;;6.20;3.85;;;;;;;;;;5059646;28;20044;-74
2021/07/09 04:01:36;;;;;;;7.13;4.63;;;;;;;;;;5058810;28;20033;-74
2021/07/09 04:04:03;;;;;;;8.20;4.78;;;;;;;;;;5048038;28;20400;-74
2021/07/09 04:06:29;;;;;;;7.95;3.95;;;;;;;;;;5060869;28;20477;-74
2021/07/09 04:08:55;;;;;;;8.70;5.05;;;;;;;;;;5060666;28;20603;-73
2021/07/09 04:11:22;;;;;;;11.40;5.32;;;;;;;;;;5063002;28;20170;-74
2021/07/09 04:13:48;;;;;;;10.25;6.13;;;;;;;;;;5064755;28;20151;-73
2021/07/09 04:16:14;;;;;;;9.27;5.75;;;;;;;;;;5040072;28;20791;-74
2021/07/09 04:18:40;;;;;;;13.25;7.75;;;;;;;;;;5060666;28;20499;-73
2021/07/09 04:21:07;;;;;;;8.98;6.05;;;;;;;;;;5059242;28;20052;-74
2021/07/09 04:23:33;;;;;;;7.78;5.43;;;;;;;;;;5060885;28;20461;-74
2021/07/09 04:25:59;;;;;;;9.23;5.63;;;;;;;;;;5063229;28;20120;-74
2021/07/09 04:28:26;;;;;;;9.55;4.68;;;;;;;;;;5064743;28;20063;-74
2021/07/09 04:30:54;;;;;;;8.73;4.47;;;;;;;;;;5065835;28;20044;-74
2021/07/09 04:33:21;;;;;;;24.98;5.40;;;;;;;;;;5064706;28;20047;-74
2021/07/09 04:35:48;;;;;;;16.00;5.43;;;;;;;;;;5063223;28;20036;-74
2021/07/09 04:38:14;;;;;;;11.75;4.28;;;;;;;;;;5061861;28;20474;-74
2021/07/09 04:40:41;;;;;;;9.73;5.00;;;;;;;;;;5065836;28;20135;-74
2021/07/09 04:43:07;;;;;;;17.15;5.60;;;;;;;;;;5067625;28;20052;-74
2021/07/09 04:45:33;;;;;;;20.52;6.05;;;;;;;;;;5063981;28;20102;-74
2021/07/09 04:48:00;;;;;;;15.88;5.50;;;;;;;;;;5065452;28;20173;-74
2021/07/09 04:50:26;;;;;;;10.85;5.35;;;;;;;;;;5062366;28;20131;-74
2021/07/09 04:52:53;;;;;;;8.75;5.57;;;;;;;;;;5065305;28;20040;-74
2021/07/09 04:55:19;;;;;;;9.80;6.45;;;;;;;;;;5068875;28;20048;-73
2021/07/09 04:57:46;;;;;;;7.57;4.93;;;;;;;;;;5048522;28;21638;-73
2021/07/09 05:00:12;;;;;;;7.38;4.70;;;;;;;;;;5067713;28;20044;-72
2021/07/09 05:02:39;;;;;;;7.53;4.60;;;;;;;;;;5049647;28;20037;-73
2021/07/09 05:05:07;;;;;;;10.60;4.40;;;;;;;;;;5058357;28;20484;-73
2021/07/09 05:07:34;;;;;;;6.50;4.80;;;;;;;;;;5062504;28;20572;-73
2021/07/09 05:10:00;;;;;;;7.45;5.85;;;;;;;;;;5061526;28;20101;-73
2021/07/09 05:12:26;;;;;;;8.15;5.90;;;;;;;;;;5061917;28;20106;-73
2021/07/09 05:14:52;;;;;;;8.98;6.10;;;;;;;;;;5059473;28;20102;-73
2021/07/09 05:17:18;;;;;;;8.73;6.85;;;;;;;;;;5066280;28;20048;-73
2021/07/09 05:19:45;;;;;;;11.07;7.60;;;;;;;;;;5064705;28;20173;-73
2021/07/09 05:22:11;;;;;;;12.27;8.45;;;;;;;;;;5064831;28;20044;-72
2021/07/09 05:24:38;;;;;;;15.23;9.48;;;;;;;;;;5047474;28;20127;-73
2021/07/09 05:27:05;;;;;;;16.45;11.02;;;;;;;;;;5065465;28;20028;-73
2021/07/09 05:29:31;;;;;;;26.27;14.68;;;;;;;;;;5066819;28;20072;-73
2021/07/09 05:31:58;;;;;;;25.60;16.10;;;;;;;;;;5048751;28;20043;-73
2021/07/09 05:34:24;;;;;;;22.60;14.25;;;;;;;;;;5066444;28;20102;-73
2021/07/09 05:36:51;;;;;;;24.80;16.83;;;;;;;;;;5046523;28;20064;-73
2021/07/09 05:39:18;;;;;;;25.92;17.55;;;;;;;;;;5044734;28;20408;-72
2021/07/09 05:41:44;;;;;;;27.20;17.75;;;;;;;;;;5063071;28;20075;-72
2021/07/09 05:44:11;;;;;;;27.48;18.33;;;;;;;;;;5062686;28;20064;-73
2021/07/09 05:46:37;;;;;;;30.27;19.52;;;;;;;;;;5065433;28;20122;-73
2021/07/09 05:49:04;;;;;;;25.30;17.83;;;;;;;;;;5065822;28;20140;-73
2021/07/09 05:51:30;;;;;;;30.52;19.75;;;;;;;;;;5064512;28;20052;-73
2021/07/09 05:53:56;;;;;;;29.02;19.95;;;;;;;;;;5059407;28;20166;-73
2021/07/09 05:56:22;;;;;;;32.78;21.38;;;;;;;;;;5059319;28;20040;-73
2021/07/09 05:58:49;;;;;;;27.85;20.15;;;;;;;;;;5048560;28;20412;-73
2021/07/09 06:01:15;;;;;;;29.70;21.42;;;;;;;;;;5044410;28;20519;-73
2021/07/09 06:03:42;;;;;;;31.60;21.95;;;;;;;;;;5046262;28;20044;-74
2021/07/09 06:06:08;;;;;;;34.22;22.85;;;;;;;;;;5020653;28;20055;-77
2021/07/09 06:08:35;;;;;;;32.10;22.10;;;;;;;;;;5042237;28;20076;-77
2021/07/09 06:11:01;;;;;;;43.28;23.63;;;;;;;;;;5021421;28;20115;-77
2021/07/09 06:13:27;;;;;;;35.22;23.08;;;;;;;;;;5023578;28;20053;-76
2021/07/09 06:15:55;;;;;;;36.95;22.65;;;;;;;;;;5043269;28;20749;-77
2021/07/09 06:18:21;;;;;;;35.90;24.05;;;;;;;;;;5045343;28;20044;-77
2021/07/09 06:20:47;;;;;;;31.52;23.65;;;;;;;;;;5045280;28;20040;-77
2021/07/09 06:23:13;;;;;;;31.70;23.15;;;;;;;;;;5028234;28;20163;-77
2021/07/09 06:25:40;;;;;;;31.75;24.20;;;;;;;;;;5039361;28;20045;-77
2021/07/09 06:28:07;;;;;;;36.00;24.88;;;;;;;;;;5042247;28;20421;-76
2021/07/09 06:30:34;;;;;;;33.70;24.00;;;;;;;;;;5039272;28;20056;-77
2021/07/09 06:33:00;;;;;;;32.55;24.48;;;;;;;;;;5029396;28;20045;-77
2021/07/09 06:35:29;;;;;;;32.40;24.75;;;;;;;;;;5039039;28;20037;-75
2021/07/09 06:37:56;;;;;;;34.55;24.13;;;;;;;;;;5044313;28;20140;-77
2021/07/09 06:40:22;;;;;;;34.83;23.70;;;;;;;;;;5024088;28;20465;-77
2021/07/09 06:42:48;;;;;;;30.70;22.27;;;;;;;;;;5042497;28;20400;-77
2021/07/09 06:45:15;;;;;;;30.75;22.33;;;;;;;;;;5046539;28;20057;-77
2021/07/09 06:47:41;;;;;;;31.55;22.85;;;;;;;;;;5033129;28;20361;-77
2021/07/09 06:50:07;;;;;;;29.65;21.17;;;;;;;;;;5050129;28;20143;-77
2021/07/09 06:52:34;;;;;;;27.00;20.02;;;;;;;;;;5033191;28;20346;-77
2021/07/09 06:55:00;;;;;;;28.95;21.92;;;;;;;;;;5050762;28;20537;-75
2021/07/09 06:57:26;;;;;;;31.15;21.00;;;;;;;;;;5050102;28;20041;-75
2021/07/09 06:59:52;;;;;;;29.85;22.27;;;;;;;;;;5050840;28;20036;-75
2021/07/09 07:02:21;;;;;;;32.20;20.45;;;;;;;;;;5050553;28;20052;-76
2021/07/09 07:04:47;;;;;;;24.60;19.17;;;;;;;;;;5049946;28;20041;-76
2021/07/09 07:07:14;;;;;;;26.13;19.85;;;;;;;;;;5050475;28;20064;-76
2021/07/09 07:09:40;;;;;;;27.42;19.83;;;;;;;;;;5050723;28;20127;-76
2021/07/09 07:12:07;;;;;;;27.40;19.08;;;;;;;;;;5049832;28;20045;-75
2021/07/09 07:14:34;;;;;;;24.17;17.77;;;;;;;;;;5050375;28;20045;-76
2021/07/09 07:17:00;;;;;;;27.67;19.23;;;;;;;;;;5031706;28;20049;-76
2021/07/09 07:19:26;;;;;;;20.35;15.02;;;;;;;;;;5050282;28;20547;-76
2021/07/09 07:21:53;;;;;;;23.63;15.93;;;;;;;;;;5050584;28;20041;-75
2021/07/09 07:24:20;;;;;;;23.02;16.60;;;;;;;;;;5049833;28;20037;-76
2021/07/09 07:26:46;;;;;;;22.75;18.35;;;;;;;;;;5050589;28;20063;-76
2021/07/09 07:29:13;;;;;;;23.70;19.08;;;;;;;;;;5050395;28;20044;-76
2021/07/09 07:31:39;;;;;;;25.02;18.48;;;;;;;;;;5049759;28;20051;-76
2021/07/09 07:34:05;;;;;;;24.02;18.80;;;;;;;;;;5031779;28;20140;-76
2021/07/09 07:36:32;;;;;;;20.75;17.02;;;;;;;;;;5050437;28;20103;-76
2021/07/09 07:38:58;;;;;;;23.85;18.80;;;;;;;;;;5049298;28;20041;-76
2021/07/09 07:41:24;;;;;;;26.55;18.15;;;;;;;;;;5050040;28;20127;-76
2021/07/09 07:43:51;;;;;;;26.38;18.58;;;;;;;;;;5050081;28;20364;-75
2021/07/09 07:46:17;;;;;;;25.02;19.42;;;;;;;;;;5031718;28;20110;-76
2021/07/09 07:48:44;;;;;;;21.60;17.35;;;;;;;;;;5049951;28;20045;-76
2021/07/09 07:51:10;;;;;;;23.48;16.88;;;;;;;;;;5050137;28;20041;-75
2021/07/09 07:53:36;;;;;;;23.50;17.95;;;;;;;;;;5031163;28;20056;-76
2021/07/09 07:56:03;;;;;;;20.60;14.45;;;;;;;;;;5049897;28;20140;-77
2021/07/09 07:58:30;;;;;;;19.00;15.30;;;;;;;;;;5049538;28;20064;-77
2021/07/09 08:00:58;;;;;;;20.50;16.50;;;;;;;;;;5049302;28;20087;-77
2021/07/09 08:03:25;;;;;;;22.23;16.90;;;;;;;;;;5050076;28;20067;-77
2021/07/09 08:05:51;;;;;;;22.42;16.30;;;;;;;;;;5050076;28;20056;-77
2021/07/09 08:08:18;;;;;;;19.35;15.75;;;;;;;;;;5049391;28;20131;-77
2021/07/09 08:10:44;;;;;;;20.95;16.55;;;;;;;;;;5049845;28;20030;-77
2021/07/09 08:13:10;;;;;;;20.35;16.52;;;;;;;;;;5049854;28;20055;-77
2021/07/09 08:15:37;;;;;;;19.52;16.10;;;;;;;;;;5036170;28;20053;-77
2021/07/09 08:18:03;;;;;;;19.38;15.45;;;;;;;;;;5053980;28;20097;-77
2021/07/09 08:20:29;;;;;;;22.85;16.55;;;;;;;;;;5053385;28;20049;-77
2021/07/09 08:22:56;;;;;;;16.40;14.25;;;;;;;;;;5053984;28;20118;-77
2021/07/09 08:25:22;;;;;;;17.38;13.63;;;;;;;;;;5054073;28;20045;-77
2021/07/09 08:27:48;;;;;;;17.83;14.20;;;;;;;;;;5052978;28;20037;-77
2021/07/09 08:30:15;;;;;;;20.80;14.50;;;;;;;;;;5053883;28;20476;-77
2021/07/09 08:32:41;;;;;;;20.58;13.90;;;;;;;;;;5053428;28;20037;-77
2021/07/09 08:35:08;;;;;;;15.55;11.77;;;;;;;;;;5053225;28;20131;-77
2021/07/09 08:37:34;;;;;;;17.38;13.18;;;;;;;;;;5053402;28;20049;-77
2021/07/09 08:40:01;;;;;;;15.38;13.13;;;;;;;;;;5053802;28;20087;-77
2021/07/09 08:42:27;;;;;;;19.05;13.48;;;;;;;;;;5052805;28;20053;-77
2021/07/09 08:44:53;;;;;;;17.38;14.68;;;;;;;;;;5053370;28;20057;-77
2021/07/09 08:47:20;;;;;;;18.15;12.95;;;;;;;;;;5053525;28;20042;-77
2021/07/09 08:49:47;;;;;;;17.35;11.57;;;;;;;;;;5052410;28;20037;-77
2021/07/09 08:52:14;;;;;;;13.27;10.38;;;;;;;;;;5053425;28;20044;-77
2021/07/09 08:54:40;;;;;;;17.25;12.75;;;;;;;;;;5053431;28;20047;-77
2021/07/09 08:57:06;;;;;;;18.00;12.43;;;;;;;;;;5052593;28;20122;-77
2021/07/09 08:59:33;;;;;;;13.65;9.68;;;;;;;;;;5053017;28;20052;-77
2021/07/09 09:02:03;;;;;;;12.68;9.02;;;;;;;;;;5053108;28;20291;-77
2021/07/09 09:04:31;;;;;;;12.63;9.70;;;;;;;;;;5052547;28;20123;-77
2021/07/09 09:06:58;;;;;;;16.52;11.77;;;;;;;;;;5053258;28;20111;-77
2021/07/09 09:09:25;;;;;;;16.67;12.80;;;;;;;;;;5052509;28;20044;-77
2021/07/09 09:11:59;;;;;;;14.80;11.85;;;;;;;;;;5052803;28;20164;-77
2021/07/09 09:14:25;;;;;;;19.85;13.02;;;;;;;;;;5040204;28;20053;-77
2021/07/09 09:16:52;;;;;;;17.58;12.20;;;;;;;;;;5034426;28;20045;-77
2021/07/09 09:19:19;;;;;;;19.23;13.45;;;;;;;;;;5052648;28;20051;-77
2021/07/09 09:21:46;;;;;;;16.38;11.55;;;;;;;;;;5034845;28;20485;-77
2021/07/09 09:24:12;;;;;;;17.08;13.00;;;;;;;;;;5051343;28;20041;-77
2021/07/09 09:26:43;;;;;;;13.20;10.82;;;;;;;;;;5052368;28;20052;-77
2021/07/09 09:29:15;;;;;;;16.05;11.77;;;;;;;;;;5052456;28;20473;-77
2021/07/09 09:31:42;;;;;;;14.20;11.88;;;;;;;;;;5052021;28;20041;-77
2021/07/09 09:34:08;;;;;;;15.43;11.15;;;;;;;;;;5052307;28;20529;-77
2021/07/09 09:36:35;;;;;;;12.50;10.25;;;;;;;;;;5052477;28;20416;-77
2021/07/09 09:39:02;;;;;;;14.18;9.75;;;;;;;;;;5051757;28;20446;-75
2021/07/09 09:41:29;;;;;;;12.80;9.45;;;;;;;;;;5052671;28;20119;-71
2021/07/09 09:44:09;;;;;;;12.68;8.98;;;;;;;;;;5052749;28;20045;-71
2021/07/09 09:46:35;;;;;;;13.98;9.68;;;;;;;;;;5051434;28;20033;-71
2021/07/09 09:49:05;;;;;;;12.30;9.93;;;;;;;;;;5052566;28;20049;-71
2021/07/09 09:51:34;;;;;;;14.95;9.90;;;;;;;;;;5051938;28;20373;-71
2021/07/09 09:54:03;;;;;;;12.73;9.82;;;;;;;;;;5052191;28;20334;-71
2021/07/09 09:56:30;;;;;;;11.57;9.57;;;;;;;;;;5034613;28;20048;-71
2021/07/09 09:59:13;;;;;;;9.80;8.00;;;;;;;;;;5065189;28;20049;-71
2021/07/09 10:01:45;;;;;;;12.68;8.45;;;;;;;;;;5072235;28;20047;-71
2021/07/09 10:04:12;;;;;;;11.65;8.25;;;;;;;;;;5072202;28;20136;-71
2021/07/09 10:06:38;;;;;;;11.55;8.05;;;;;;;;;;5071427;28;20049;-71
2021/07/09 10:09:04;;;;;;;10.07;7.65;;;;;;;;;;5072303;28;20040;-72
2021/07/09 10:11:31;;;;;;;11.07;8.45;;;;;;;;;;5072107;28;20087;-72
2021/07/09 10:13:58;;;;;;;14.65;11.38;;;;;;;;;;5071015;28;20128;-71
2021/07/09 10:16:24;;;;;;;19.83;15.93;;;;;;;;;;5071704;28;20428;-71
2021/07/09 10:18:52;;;;;;;20.17;16.17;;;;;;;;;;5071754;28;20040;-71
2021/07/09 10:21:18;;;;;;;20.60;16.42;;;;;;;;;;5070954;28;20476;-71
2021/07/09 10:23:47;;;;;;;18.90;15.85;;;;;;;;;;5071683;28;20436;-71
2021/07/09 10:26:18;;;;;;;17.52;15.15;;;;;;;;;;5044391;28;20064;-71
2021/07/09 10:29:04;;;;;;;19.02;14.88;;;;;;;;;;5053051;28;20120;-71
2021/07/09 10:31:38;;;;;;;18.23;15.27;;;;;;;;;;5071390;28;20146;-71
2021/07/09 10:34:30;;;;;;;18.38;13.43;;;;;;;;;;5056522;28;20060;-71
2021/07/09 10:36:58;;;;;;;19.17;14.57;;;;;;;;;;5070885;28;20040;-71
2021/07/09 10:39:33;;;;;;;14.70;12.80;;;;;;;;;;5071318;28;20101;-71
2021/07/09 10:42:13;;;;;;;14.98;13.35;;;;;;;;;;5070510;28;20098;-72
2021/07/09 10:44:39;;;;;;;17.13;13.32;;;;;;;;;;5071110;28;20058;-71
2021/07/09 10:47:15;;;;;;;15.25;13.43;;;;;;;;;;5046489;28;20083;-72
2021/07/09 10:49:57;;;;;;;18.70;14.25;;;;;;;;;;5052160;28;20433;-71
2021/07/09 10:52:42;;;;;;;16.52;13.13;;;;;;;;;;5071299;28;20064;-71
2021/07/09 10:55:43;;;;;;;16.90;13.02;;;;;;;;;;5070062;28;20382;-71
2021/07/09 10:58:10;;;;;;;16.35;11.70;;;;;;;;;;5063479;28;20073;-71
2021/07/09 11:00:47;;;;;;;14.95;12.77;;;;;;;;;;5050601;28;20465;-71
2021/07/09 11:03:30;;;;;;;18.25;13.88;;;;;;;;;;5050238;28;20048;-71
2021/07/09 11:05:57;;;;;;;16.67;13.63;;;;;;;;;;5038192;28;20060;-72
2021/07/09 11:08:39;;;;;;;16.88;13.65;;;;;;;;;;5050222;28;20060;-71
2021/07/09 11:11:09;;;;;;;17.10;14.27;;;;;;;;;;5037801;28;20051;-71
2021/07/09 11:13:41;;;;;;;19.75;15.25;;;;;;;;;;5050600;28;20055;-71
2021/07/09 11:16:24;;;;;;;15.43;13.32;;;;;;;;;;5049977;28;20139;-71
2021/07/09 11:18:51;;;;;;;16.58;12.82;;;;;;;;;;5050974;28;20041;-72
2021/07/09 11:21:37;;;;;;;16.65;13.00;;;;;;;;;;5050584;28;20134;-71
2021/07/09 11:24:05;;;;;;;18.13;14.02;;;;;;;;;;5049716;28;20139;-71
2021/07/09 11:26:34;;;;;;;16.15;14.43;;;;;;;;;;5032860;28;20033;-71
2021/07/09 11:29:00;;;;;;;17.08;13.40;;;;;;;;;;5050069;28;20512;-71
2021/07/09 11:31:30;;;;;;;16.92;14.00;;;;;;;;;;5049809;28;20068;-72
2021/07/09 11:34:01;;;;;;;17.00;13.63;;;;;;;;;;5048710;28;20119;-71
2021/07/09 11:36:28;;;;;;;14.32;12.85;;;;;;;;;;5047795;28;20427;-71
2021/07/09 11:39:05;;;;;;;14.90;12.07;;;;;;;;;;5047462;28;20109;-71
2021/07/09 11:41:31;;;;;;;14.43;12.40;;;;;;;;;;5047726;28;20044;-76
2021/07/09 11:43:57;;;;;;;14.38;11.55;;;;;;;;;;5031488;28;20085;-76
2021/07/09 11:46:23;;;;;;;12.38;9.63;;;;;;;;;;5032816;28;20049;-76
2021/07/09 11:48:49;;;;;;;13.98;10.93;;;;;;;;;;5045796;28;20095;-76
2021/07/09 11:51:16;;;;;;;15.55;13.70;;;;;;;;;;5047361;28;20171;-76
2021/07/09 11:53:42;;;;;;;17.92;13.90;;;;;;;;;;5048028;28;20089;-76
2021/07/09 11:56:17;;;;;;;17.40;14.73;;;;;;;;;;5037502;28;20041;-76
2021/07/09 11:58:44;;;;;;;21.00;16.40;;;;;;;;;;5059471;28;20178;-74
2021/07/09 12:01:17;;;;;;;18.15;14.73;;;;;;;;;;5049673;28;20097;-76
2021/07/09 12:03:48;;;;;;;16.63;14.45;;;;;;;;;;5066468;28;20113;-76
2021/07/09 12:06:21;;;;;;;17.85;13.52;;;;;;;;;;5069000;28;20054;-76
2021/07/09 12:08:59;;;;;;;14.20;11.23;;;;;;;;;;5068167;28;20055;-76
2021/07/09 12:11:25;;;;;;;15.32;11.88;;;;;;;;;;5047569;28;20040;-76
2021/07/09 12:14:05;;;;;;;16.83;12.38;;;;;;;;;;5065640;28;20040;-76
2021/07/09 12:16:32;;;;;;;16.05;11.15;;;;;;;;;;5043046;28;20068;-76
2021/07/09 12:18:58;;;;;;;15.68;13.00;;;;;;;;;;5067732;28;20035;-76
2021/07/09 12:21:25;;;;;;;14.05;12.13;;;;;;;;;;5065268;28;20721;-76
2021/07/09 12:24:01;;;;;;;11.85;9.55;;;;;;;;;;5061487;28;20044;-76
2021/07/09 12:26:28;;;;;;;15.18;12.23;;;;;;;;;;5062227;28;20151;-76
2021/07/09 12:28:54;;;;;;;14.95;12.65;;;;;;;;;;5064768;28;20032;-77
2021/07/09 12:31:20;;;;;;;11.98;8.88;;;;;;;;;;5068042;28;20036;-77
2021/07/09 12:33:51;;;;;;;12.70;10.00;;;;;;;;;;5067851;28;20044;-78
2021/07/09 12:36:20;;;;;;;12.90;9.02;;;;;;;;;;5068896;28;20064;-77
2021/07/09 12:38:56;;;;;;;14.00;9.65;;;;;;;;;;5065443;28;20477;-77
2021/07/09 12:41:30;;;;;;;13.52;9.82;;;;;;;;;;5057612;28;20037;-77
2021/07/09 12:43:56;;;;;;;;;;;;;;;;;;5070718;28;20464;-77
2021/07/09 12:46:23;;;;;;;9.70;6.88;;;;;;;;;;5069053;28;20007;-77
2021/07/09 12:49:01;;;;;;;559.47;147.48;;;;;;;;;;5056020;28;20047;-77
2021/07/09 12:51:34;;;;;;;12.05;7.75;;;;;;;;;;5068676;28;20044;-77
2021/07/09 12:54:04;;;;;;;8.27;6.60;;;;;;;;;;5068601;28;20039;-77
2021/07/09 12:56:31;;;;;;;10.00;6.95;;;;;;;;;;5068098;28;20040;-77
2021/07/09 12:58:59;;;;;;;11.65;6.90;;;;;;;;;;5068738;28;20072;-77
2021/07/09 13:01:26;;;;;;;10.25;7.00;;;;;;;;;;5068586;28;20051;-77
2021/07/09 13:03:53;;;;;;;12.23;9.30;;;;;;;;;;5071757;28;20111;-77
2021/07/09 13:06:26;;;;;;;12.25;8.75;;;;;;;;;;5065191;28;20086;-77
2021/07/09 13:08:52;;;;;;;;;;;;;;;;;;5074806;28;20064;-77
2021/07/09 13:11:19;;;;;;;12.93;8.48;;;;;;;;;;5072021;28;19920;-77
2021/07/09 13:13:53;;;;;;;10.52;8.40;;;;;;;;;;5071072;28;20520;-77
2021/07/09 13:16:21;;;;;;;10.65;7.88;;;;;;;;;;5071717;28;20127;-77
2021/07/09 13:18:53;;;;;;;8.02;6.80;;;;;;;;;;5072336;28;20181;-77
2021/07/09 13:21:20;;;;;;;9.45;6.82;;;;;;;;;;5053561;28;20352;-77
2021/07/09 13:24:02;;;;;;;12.93;8.20;;;;;;;;;;5070565;28;20051;-77
2021/07/09 13:26:36;;;;;;;10.10;8.75;;;;;;;;;;5068931;28;20036;-77
2021/07/09 13:29:03;;;;;;;9.07;7.13;;;;;;;;;;5072038;28;20066;-77
2021/07/09 13:31:29;;;;;;;9.68;7.97;;;;;;;;;;5071313;28;20429;-77
2021/07/09 13:33:56;;;;;;;10.88;7.63;;;;;;;;;;5056156;28;20041;-77
2021/07/09 13:36:32;;;;;;;9.93;6.45;;;;;;;;;;5071880;28;20488;-77
2021/07/09 13:38:58;;;;;;;9.70;6.38;;;;;;;;;;5071111;28;20085;-77
2021/07/09 13:41:24;;;;;;;9.80;6.85;;;;;;;;;;5064144;28;20036;-77
2021/07/09 13:43:51;;;;;;;9.90;6.82;;;;;;;;;;5071172;28;20052;-77
2021/07/09 13:46:17;;;;;;;9.13;7.65;;;;;;;;;;5071838;28;20098;-77
2021/07/09 13:48:43;;;;;;;10.05;7.47;;;;;;;;;;5071975;28;20052;-77
2021/07/09 13:51:14;;;;;;;10.95;7.00;;;;;;;;;;5070871;28;20037;-76
2021/07/09 13:53:41;;;;;;;8.93;7.25;;;;;;;;;;5069630;28;20040;-77
2021/07/09 13:56:07;;;;;;;9.18;6.75;;;;;;;;;;5070696;28;20040;-77
2021/07/09 13:58:33;;;;;;;9.90;6.45;;;;;;;;;;5070662;28;20060;-76
2021/07/09 14:01:00;;;;;;;9.43;5.97;;;;;;;;;;5070482;28;20045;-76
2021/07/09 14:03:27;;;;;;;8.40;6.25;;;;;;;;;;5068263;28;20435;-76
2021/07/09 14:05:55;;;;;;;9.43;6.40;;;;;;;;;;5067844;28;20492;-77
2021/07/09 14:08:21;;;;;;;8.32;6.28;;;;;;;;;;5074735;28;20045;-77
2021/07/09 14:10:49;;;;;;;9.73;5.93;;;;;;;;;;5069437;28;20064;-77
2021/07/09 14:13:16;;;;;;;9.60;5.97;;;;;;;;;;5070208;28;20433;-77
2021/07/09 14:15:42;;;;;;;9.90;7.30;;;;;;;;;;5054439;28;20044;-74
2021/07/09 14:18:12;;;;;;;9.88;6.88;;;;;;;;;;5064396;28;20036;-76
2021/07/09 14:20:38;;;;;;;8.65;6.75;;;;;;;;;;5047739;28;20140;-76
2021/07/09 14:23:05;;;;;;;8.02;6.88;;;;;;;;;;5069652;28;20131;-75
2021/07/09 14:25:31;;;;;;;9.20;6.68;;;;;;;;;;5067851;28;20171;-77
2021/07/09 14:27:57;;;;;;;9.25;6.03;;;;;;;;;;5069840;28;20547;-76